createdAt,value
2018-01-16T00:00:49.580Z,98.40
2018-01-16T00:03:15.850Z,98.30
2018-01-16T00:05:42.089Z,98.20
2018-01-16T00:08:08.338Z,98.20
2018-01-16T00:10:34.617Z,98.20
2018-01-16T00:13:00.864Z,98.10
2018-01-16T00:15:28.142Z,97.80
2018-01-16T00:17:54.390Z,97.70
2018-01-16T00:20:20.643Z,97.50
2018-01-16T00:22:46.912Z,97.40
2018-01-16T00:25:13.179Z,97.40
2018-01-16T00:27:39.452Z,97.40
2018-01-16T00:30:05.677Z,97.40
2018-01-16T00:32:32.684Z,97.30
2018-01-16T00:34:58.944Z,97.20
2018-01-16T00:37:25.208Z,97.10
2018-01-16T00:39:51.443Z,96.80
2018-01-16T00:42:17.679Z,96.50
2018-01-16T00:44:43.948Z,96.40
2018-01-16T00:47:10.933Z,96.60
2018-01-16T00:49:37.178Z,96.90
2018-01-16T00:52:03.463Z,96.60
2018-01-16T00:54:29.730Z,96.50
2018-01-16T00:56:56.737Z,96.40
2018-01-16T00:59:23.024Z,96.40
2018-01-16T01:01:50.000Z,96.50
2018-01-16T01:04:16.268Z,96.50
2018-01-16T01:06:42.514Z,96.50
2018-01-16T01:09:08.781Z,96.10
2018-01-16T01:11:35.016Z,95.90
2018-01-16T01:14:01.536Z,95.70
2018-01-16T01:16:27.786Z,95.60
2018-01-16T01:18:54.037Z,95.30
2018-01-16T01:21:20.290Z,94.60
2018-01-16T01:23:46.518Z,94.20
2018-01-16T01:26:12.780Z,94.20
2018-01-16T01:28:39.006Z,94.30
2018-01-16T01:31:05.249Z,94.30
2018-01-16T01:33:31.523Z,94.30
2018-01-16T01:35:58.508Z,94.40
2018-01-16T01:38:24.742Z,94.40
2018-01-16T01:40:50.991Z,94.40
2018-01-16T01:43:17.233Z,94.40
2018-01-16T01:45:43.460Z,94.50
2018-01-16T01:48:09.719Z,94.60
2018-01-16T01:50:35.953Z,94.70
2018-01-16T01:53:02.205Z,94.70
2018-01-16T01:55:28.493Z,94.70
2018-01-16T01:57:55.548Z,94.40
2018-01-16T02:00:21.808Z,94.30
2018-01-16T02:02:48.825Z,94.50
2018-01-16T02:05:15.071Z,94.50
2018-01-16T02:07:41.355Z,94.00
2018-01-16T02:10:07.612Z,93.40
2018-01-16T02:12:33.843Z,93.20
2018-01-16T02:15:00.103Z,93.10
2018-01-16T02:17:26.319Z,93.30
2018-01-16T02:19:52.864Z,93.30
2018-01-16T02:22:19.088Z,93.30
2018-01-16T02:24:46.070Z,93.90
2018-01-16T02:27:12.331Z,93.90
2018-01-16T02:29:38.577Z,94.20
2018-01-16T02:32:04.815Z,94.40
2018-01-16T02:34:31.837Z,94.80
2018-01-16T02:36:58.829Z,95.00
2018-01-16T02:39:25.071Z,95.00
2018-01-16T02:41:51.297Z,95.40
2018-01-16T02:44:17.558Z,95.60
2018-01-16T02:46:43.837Z,96.00
2018-01-16T02:49:10.075Z,96.40
2018-01-16T02:51:36.348Z,96.60
2018-01-16T02:54:02.879Z,96.90
2018-01-16T02:56:29.844Z,97.20
2018-01-16T02:58:56.855Z,97.40
2018-01-16T03:01:23.134Z,97.40
2018-01-16T03:03:50.110Z,97.80
2018-01-16T03:06:16.411Z,97.80
2018-01-16T03:08:42.642Z,97.90
2018-01-16T03:11:08.897Z,98.10
2018-01-16T03:13:35.169Z,98.30
2018-01-16T03:16:02.153Z,98.70
2018-01-16T03:18:28.423Z,98.70
2018-01-16T03:20:54.654Z,98.80
2018-01-16T03:23:20.920Z,99.00
2018-01-16T03:25:47.163Z,99.20
2018-01-16T03:28:13.404Z,99.40
2018-01-16T03:30:39.656Z,99.70
2018-01-16T03:33:06.629Z,99.90
2018-01-16T03:35:32.883Z,99.90
2018-01-16T03:37:59.103Z,99.90
2018-01-16T03:40:26.086Z,99.90
2018-01-16T03:42:52.308Z,99.90
2018-01-16T03:45:18.551Z,99.90
2018-01-16T03:47:44.790Z,99.90
2018-01-16T03:50:11.786Z,99.90
2018-01-16T03:52:38.039Z,99.90
2018-01-16T03:55:04.291Z,99.90
2018-01-16T03:57:30.555Z,99.90
2018-01-16T03:59:57.534Z,99.90
2018-01-16T04:02:23.810Z,99.90
2018-01-16T04:04:50.127Z,99.90
2018-01-16T04:07:17.130Z,99.90
2018-01-16T04:09:43.404Z,99.90
2018-01-16T04:12:10.380Z,99.90
2018-01-16T04:14:36.623Z,99.90
2018-01-16T04:17:02.939Z,99.90
2018-01-16T04:19:29.931Z,99.90
2018-01-16T04:21:56.188Z,99.90
2018-01-16T04:24:22.422Z,99.90
2018-01-16T04:26:48.680Z,99.90
2018-01-16T04:29:14.946Z,99.90
2018-01-16T04:31:41.194Z,99.90
2018-01-16T04:34:07.428Z,99.90
2018-01-16T04:36:33.692Z,99.90
2018-01-16T04:39:00.647Z,99.90
2018-01-16T04:41:27.883Z,99.90
2018-01-16T04:43:54.121Z,99.90
2018-01-16T04:46:20.373Z,99.90
2018-01-16T04:48:46.641Z,99.90
2018-01-16T04:51:12.882Z,99.90
2018-01-16T04:53:39.160Z,99.90
2018-01-16T04:56:05.403Z,99.90
2018-01-16T04:58:31.660Z,99.90
2018-01-16T05:00:57.946Z,99.90
2018-01-16T05:03:24.446Z,99.90
2018-01-16T05:05:50.676Z,99.90
2018-01-16T05:08:16.915Z,99.90
2018-01-16T05:10:43.157Z,99.90
2018-01-16T05:13:09.411Z,99.90
2018-01-16T05:15:35.668Z,99.90
2018-01-16T05:18:01.872Z,99.90
2018-01-16T05:20:28.127Z,99.90
2018-01-16T05:22:54.370Z,99.90
2018-01-16T05:25:20.616Z,99.90
2018-01-16T05:27:46.897Z,99.90
2018-01-16T05:30:13.149Z,99.90
2018-01-16T05:32:39.398Z,99.10
2018-01-16T05:35:05.628Z,98.00
2018-01-16T05:37:31.870Z,98.00
2018-01-16T05:39:58.129Z,97.60
2018-01-16T05:42:24.419Z,96.60
2018-01-16T05:44:50.942Z,96.20
2018-01-16T05:47:17.227Z,95.60
2018-01-16T05:49:43.500Z,95.00
2018-01-16T05:52:09.754Z,95.30
2018-01-16T05:54:36.012Z,95.70
2018-01-16T05:57:02.306Z,96.20
2018-01-16T05:59:28.541Z,96.50
2018-01-16T06:01:54.819Z,96.90
2018-01-16T06:04:21.061Z,97.20
2018-01-16T06:06:47.333Z,97.60
2018-01-16T06:09:13.569Z,97.90
2018-01-16T06:11:39.773Z,98.20
2018-01-16T06:14:06.005Z,98.50
2018-01-16T06:16:32.236Z,98.70
2018-01-16T06:18:58.498Z,98.80
2018-01-16T06:21:24.755Z,99.00
2018-01-16T06:23:50.977Z,99.30
2018-01-16T06:26:17.225Z,99.50
2018-01-16T06:28:43.469Z,99.60
2018-01-16T06:31:09.698Z,99.60
2018-01-16T06:33:35.923Z,99.80
2018-01-16T06:36:02.145Z,99.90
2018-01-16T06:38:28.368Z,99.90
2018-01-16T06:40:54.616Z,99.90
2018-01-16T06:43:21.610Z,99.90
2018-01-16T06:45:47.859Z,99.90
2018-01-16T06:48:14.108Z,99.90
2018-01-16T06:50:40.372Z,99.80
2018-01-16T06:53:06.638Z,99.70
2018-01-16T06:55:32.887Z,99.80
2018-01-16T06:57:59.858Z,99.90
2018-01-16T07:00:26.127Z,99.90
2018-01-16T07:02:52.364Z,99.90
2018-01-16T07:05:18.612Z,99.90
2018-01-16T07:07:44.900Z,99.90
2018-01-16T07:10:11.912Z,99.90
2018-01-16T07:12:38.200Z,99.90
2018-01-16T07:15:05.201Z,99.90
2018-01-16T07:17:31.453Z,99.90
2018-01-16T07:19:57.738Z,99.90
2018-01-16T07:22:24.742Z,99.90
2018-01-16T07:24:51.018Z,99.90
2018-01-16T07:27:17.255Z,99.90
2018-01-16T07:29:43.508Z,99.90
2018-01-16T07:32:09.724Z,99.90
2018-01-16T07:34:35.976Z,99.90
2018-01-16T07:37:02.225Z,99.90
2018-01-16T07:39:28.451Z,99.90
2018-01-16T07:41:54.711Z,99.70
2018-01-16T07:44:20.937Z,99.90
2018-01-16T07:46:47.206Z,99.40
2018-01-16T07:49:14.168Z,98.20
2018-01-16T07:51:41.169Z,96.60
2018-01-16T07:54:07.428Z,96.60
2018-01-16T07:56:33.672Z,95.70
2018-01-16T07:58:59.961Z,95.50
2018-01-16T08:01:26.243Z,94.20
2018-01-16T08:03:52.505Z,93.40
2018-01-16T08:06:18.778Z,93.30
2018-01-16T08:08:45.044Z,93.60
2018-01-16T08:11:11.308Z,93.10
2018-01-16T08:13:37.565Z,92.80
2018-01-16T08:16:03.811Z,92.50
2018-01-16T08:18:30.103Z,92.00
2018-01-16T08:20:56.309Z,91.70
2018-01-16T08:23:23.301Z,91.70
2018-01-16T08:25:49.571Z,91.70
2018-01-16T08:28:15.837Z,91.80
2018-01-16T08:30:42.075Z,92.20
2018-01-16T08:33:08.345Z,92.60
2018-01-16T08:35:35.313Z,92.80
2018-01-16T08:38:01.550Z,92.80
2018-01-16T08:40:27.750Z,92.80
2018-01-16T08:42:53.971Z,92.30
2018-01-16T08:45:20.258Z,92.10
2018-01-16T08:47:46.501Z,92.10
2018-01-16T08:50:12.740Z,91.70
2018-01-16T08:52:39.711Z,91.10
2018-01-16T08:55:05.984Z,91.40
2018-01-16T08:57:32.234Z,91.30
2018-01-16T08:59:58.505Z,91.20
2018-01-16T09:02:24.766Z,91.10
2018-01-16T09:04:51.743Z,90.80
2018-01-16T09:07:17.992Z,90.80
2018-01-16T09:09:44.253Z,90.90
2018-01-16T09:12:10.462Z,91.00
2018-01-16T09:14:36.702Z,90.90
2018-01-16T09:17:02.978Z,90.70
2018-01-16T09:19:29.229Z,90.50
2018-01-16T09:21:55.482Z,90.50
2018-01-16T09:24:21.760Z,90.40
2018-01-16T09:26:48.032Z,89.80
2018-01-16T09:29:14.292Z,89.60
2018-01-16T09:31:40.548Z,89.40
2018-01-16T09:34:06.766Z,88.40
2018-01-16T09:36:33.037Z,87.00
2018-01-16T09:39:00.006Z,86.60
2018-01-16T09:41:27.019Z,86.00
2018-01-16T09:43:53.242Z,86.00
2018-01-16T09:46:19.506Z,86.60
2018-01-16T09:48:45.758Z,87.60
2018-01-16T09:51:12.002Z,86.20
2018-01-16T09:53:38.226Z,83.90
2018-01-16T09:56:04.478Z,83.30
2018-01-16T09:58:30.734Z,82.80
2018-01-16T10:00:57.001Z,83.70
2018-01-16T10:03:23.248Z,84.30
2018-01-16T10:05:49.483Z,84.70
2018-01-16T10:08:15.750Z,85.00
2018-01-16T10:10:42.004Z,85.60
2018-01-16T10:13:08.242Z,86.00
2018-01-16T10:15:34.448Z,86.90
2018-01-16T10:18:00.695Z,87.10
2018-01-16T10:20:26.931Z,87.00
2018-01-16T10:22:53.164Z,86.90
2018-01-16T10:25:19.407Z,87.40
2018-01-16T10:27:45.673Z,90.70
2018-01-16T10:30:11.935Z,91.20
2018-01-16T10:32:38.188Z,90.20
2018-01-16T10:35:04.455Z,89.30
2018-01-16T10:37:31.457Z,89.10
2018-01-16T10:39:57.719Z,89.10
2018-01-16T10:42:23.957Z,89.30
2018-01-16T10:44:50.285Z,89.70
2018-01-16T10:47:16.531Z,88.70
2018-01-16T10:49:42.949Z,87.20
2018-01-16T10:52:09.187Z,86.10
2018-01-16T10:54:35.461Z,86.30
2018-01-16T10:57:01.731Z,85.90
2018-01-16T10:59:28.739Z,84.80
2018-01-16T11:01:55.005Z,84.80
2018-01-16T11:04:21.271Z,83.30
2018-01-16T11:06:48.264Z,82.10
2018-01-16T11:09:14.541Z,82.00
2018-01-16T11:11:40.794Z,82.40
2018-01-16T11:14:07.027Z,82.10
2018-01-16T11:16:33.309Z,81.80
2018-01-16T11:18:59.543Z,81.50
2018-01-16T11:21:26.541Z,82.80
2018-01-16T11:23:52.786Z,82.80
2018-01-16T11:26:19.019Z,82.70
2018-01-16T11:28:45.284Z,83.70
2018-01-16T11:31:11.539Z,83.50
2018-01-16T11:33:37.796Z,83.70
2018-01-16T11:36:04.777Z,84.60
2018-01-16T11:38:31.060Z,84.60
2018-01-16T11:40:57.302Z,85.00
2018-01-16T11:43:23.560Z,85.00
2018-01-16T11:45:49.836Z,84.70
2018-01-16T11:48:16.094Z,84.60
2018-01-16T11:50:42.332Z,84.00
2018-01-16T11:53:08.588Z,83.10
2018-01-16T11:55:34.832Z,83.60
2018-01-16T11:58:01.084Z,83.30
2018-01-16T12:00:27.389Z,83.30
2018-01-16T12:02:53.598Z,84.50
2018-01-16T12:05:19.995Z,84.20
2018-01-16T12:07:46.272Z,86.00
2018-01-16T12:10:12.506Z,87.20
2018-01-16T12:12:38.723Z,87.90
2018-01-16T12:15:04.985Z,88.50
2018-01-16T12:17:31.220Z,89.50
2018-01-16T12:19:57.462Z,89.80
2018-01-16T12:22:23.715Z,90.40
2018-01-16T12:24:49.961Z,90.70
2018-01-16T12:27:16.205Z,90.40
2018-01-16T12:29:42.434Z,90.50
2018-01-16T12:32:08.715Z,90.40
2018-01-16T12:34:35.001Z,90.30
2018-01-16T12:37:01.267Z,90.40
2018-01-16T12:39:27.552Z,90.70
2018-01-16T12:41:53.829Z,90.70
2018-01-16T12:44:20.113Z,90.70
2018-01-16T12:46:47.094Z,91.10
2018-01-16T12:49:20.421Z,91.40
2018-01-16T12:51:46.631Z,91.60
2018-01-16T12:54:12.897Z,92.20
2018-01-16T12:56:39.161Z,92.60
2018-01-16T12:59:05.403Z,93.20
2018-01-16T13:01:31.665Z,93.70
2018-01-16T13:03:57.899Z,96.40
2018-01-16T13:06:24.196Z,96.90
2018-01-16T13:08:50.419Z,96.20
2018-01-16T13:11:16.696Z,97.20
2018-01-16T13:13:42.923Z,97.10
2018-01-16T13:16:09.169Z,95.30
2018-01-16T13:18:35.429Z,94.90
2018-01-16T13:21:01.701Z,95.10
2018-01-16T13:23:27.927Z,95.10
2018-01-16T13:25:54.165Z,95.10
2018-01-16T13:28:20.403Z,95.40
2018-01-16T13:30:46.633Z,95.60
2018-01-16T13:33:12.889Z,95.80
2018-01-16T13:35:39.123Z,96.00
2018-01-16T13:38:05.365Z,96.10
2018-01-16T13:40:31.630Z,96.40
2018-01-16T13:42:57.868Z,96.50
2018-01-16T13:45:24.874Z,97.10
2018-01-16T13:47:51.142Z,97.10
2018-01-16T13:50:17.413Z,97.10
2018-01-16T13:52:44.410Z,97.30
2018-01-16T13:55:10.624Z,97.30
2018-01-16T13:57:36.854Z,97.30
2018-01-16T14:00:03.116Z,97.20
2018-01-16T14:02:29.398Z,97.30
2018-01-16T14:04:55.655Z,97.50
2018-01-16T14:07:22.636Z,98.00
2018-01-16T14:09:48.890Z,98.00
2018-01-16T14:12:15.150Z,98.30
2018-01-16T14:14:41.404Z,98.40
2018-01-16T14:17:07.628Z,98.50
2018-01-16T14:19:40.898Z,98.60
2018-01-16T14:22:07.887Z,98.80
2018-01-16T14:24:34.134Z,98.80
2018-01-16T14:27:00.404Z,99.00
2018-01-16T14:29:26.665Z,98.70
2018-01-16T14:31:52.949Z,98.90
2018-01-16T14:34:19.238Z,99.00
2018-01-16T14:36:45.513Z,98.90
2018-01-16T14:39:11.788Z,99.20
2018-01-16T14:41:38.088Z,99.20
2018-01-16T14:44:05.108Z,99.50
2018-01-16T14:46:31.393Z,99.50
2018-01-16T14:48:58.423Z,99.70
2018-01-16T14:51:24.744Z,99.70
2018-01-16T14:53:51.005Z,99.90
2018-01-16T14:56:17.279Z,99.90
2018-01-16T14:58:43.545Z,99.90
2018-01-16T15:01:10.936Z,99.90
2018-01-16T15:03:37.201Z,99.90
2018-01-16T15:06:03.475Z,99.90
2018-01-16T15:08:29.800Z,99.90
2018-01-16T15:10:56.788Z,99.20
2018-01-16T15:13:23.094Z,99.20
2018-01-16T15:15:49.374Z,99.90
2018-01-16T15:18:15.613Z,99.90
2018-01-16T15:20:41.860Z,99.90
2018-01-16T15:23:08.130Z,99.90
2018-01-16T15:25:34.412Z,99.90
2018-01-16T15:28:00.664Z,99.90
2018-01-16T15:30:26.944Z,99.90
2018-01-16T15:32:53.171Z,99.90
2018-01-16T15:35:19.452Z,99.90
2018-01-16T15:37:45.700Z,99.90
2018-01-16T15:40:11.943Z,99.90
2018-01-16T15:42:38.232Z,99.90
2018-01-16T15:45:04.480Z,99.90
2018-01-16T15:47:30.736Z,99.90
2018-01-16T15:49:57.002Z,99.90
2018-01-16T15:52:23.273Z,99.90
2018-01-16T15:54:49.512Z,99.90
2018-01-16T15:57:15.762Z,99.90
2018-01-16T15:59:42.043Z,99.90
2018-01-16T16:02:08.334Z,99.90
2018-01-16T16:04:34.616Z,99.90
2018-01-16T16:07:00.875Z,99.90
2018-01-16T16:09:27.177Z,99.90
2018-01-16T16:11:53.406Z,99.90
2018-01-16T16:14:19.692Z,99.90
2018-01-16T16:16:45.928Z,99.90
2018-01-16T16:19:12.214Z,99.90
2018-01-16T16:21:39.253Z,99.90
2018-01-16T16:24:05.516Z,99.90
2018-01-16T16:26:31.802Z,99.90
2018-01-16T16:28:58.067Z,99.90
2018-01-16T16:31:24.347Z,99.90
2018-01-16T16:33:50.621Z,99.90
2018-01-16T16:36:16.927Z,99.90
2018-01-16T16:38:43.251Z,99.90
2018-01-16T16:41:09.511Z,99.90
2018-01-16T16:43:35.796Z,99.90
2018-01-16T16:46:02.071Z,99.90
2018-01-16T16:48:29.243Z,99.90
2018-01-16T16:50:56.265Z,99.90
2018-01-16T16:53:22.523Z,99.90
2018-01-16T16:55:48.834Z,99.90
2018-01-16T16:58:15.104Z,99.90
2018-01-16T17:00:41.420Z,99.90
2018-01-16T17:03:07.674Z,99.90
2018-01-16T17:05:33.942Z,99.90
2018-01-16T17:08:00.947Z,99.90
2018-01-16T17:10:27.211Z,99.90
2018-01-16T17:12:53.495Z,99.90
2018-01-16T17:15:20.567Z,99.90
2018-01-16T17:17:46.837Z,99.90
2018-01-16T17:20:13.142Z,99.90
2018-01-16T17:22:40.200Z,99.90
2018-01-16T17:25:07.233Z,99.90
2018-01-16T17:27:33.550Z,99.90
2018-01-16T17:29:59.852Z,99.90
2018-01-16T17:32:26.163Z,99.90
2018-01-16T17:34:52.443Z,99.90
2018-01-16T17:37:18.766Z,99.90
2018-01-16T17:39:45.798Z,99.90
2018-01-16T17:42:12.095Z,99.90
2018-01-16T17:44:38.369Z,99.90
2018-01-16T17:47:04.681Z,99.90
2018-01-16T17:49:31.018Z,99.90
2018-01-16T17:51:57.384Z,99.90
2018-01-16T17:54:23.711Z,99.90
2018-01-16T17:56:49.945Z,99.90
2018-01-16T17:59:16.237Z,99.90
2018-01-16T18:01:42.517Z,99.90
2018-01-16T18:04:08.833Z,99.90
2018-01-16T18:06:35.940Z,99.90
2018-01-16T18:09:02.284Z,99.90
2018-01-16T18:11:28.649Z,99.90
2018-01-16T18:13:54.934Z,99.90
2018-01-16T18:16:21.987Z,99.90
2018-01-16T18:18:49.051Z,99.90
2018-01-16T18:21:16.107Z,99.90
2018-01-16T18:23:43.174Z,99.90
2018-01-16T18:26:10.301Z,99.90
2018-01-16T18:28:36.579Z,99.90
2018-01-16T18:31:02.931Z,99.90
2018-01-16T18:33:29.305Z,99.90
2018-01-16T18:35:55.625Z,99.90
2018-01-16T18:38:21.943Z,99.90
2018-01-16T18:40:49.036Z,99.90
2018-01-16T18:43:15.438Z,99.90
2018-01-16T18:45:42.533Z,99.90
2018-01-16T18:48:08.838Z,99.90
2018-01-16T18:50:35.193Z,99.90
2018-01-16T18:53:02.343Z,99.90
2018-01-16T18:55:29.406Z,99.90
2018-01-16T18:57:56.478Z,99.90
2018-01-16T19:00:22.859Z,99.90
2018-01-16T19:02:49.246Z,99.90
2018-01-16T19:05:15.632Z,99.90
2018-01-16T19:07:41.952Z,99.90
2018-01-16T19:10:09.074Z,99.90
2018-01-16T19:12:35.400Z,99.90
2018-01-16T19:15:01.758Z,99.90
2018-01-16T19:17:28.172Z,99.90
2018-01-16T19:19:54.517Z,99.90
2018-01-16T19:22:20.910Z,99.90
2018-01-16T19:24:48.019Z,99.90
2018-01-16T19:27:14.375Z,99.90
2018-01-16T19:29:40.699Z,99.90
2018-01-16T19:32:07.076Z,99.90
2018-01-16T19:34:33.503Z,99.90
2018-01-16T19:36:59.907Z,99.90
2018-01-16T19:39:26.968Z,99.90
2018-01-16T19:41:54.015Z,99.90
2018-01-16T19:44:21.150Z,99.90
2018-01-16T19:46:47.506Z,99.90
2018-01-16T19:49:14.099Z,99.90
2018-01-16T19:51:40.459Z,99.90
2018-01-16T19:54:06.819Z,99.90
2018-01-16T19:56:33.216Z,99.90
2018-01-16T19:58:59.611Z,99.60
2018-01-16T20:01:26.849Z,99.20
2018-01-16T20:03:53.189Z,98.80
2018-01-16T20:06:19.582Z,98.50
2018-01-16T20:08:45.921Z,98.80
2018-01-16T20:11:12.293Z,98.90
2018-01-16T20:13:39.383Z,99.70
2018-01-16T20:16:05.706Z,99.70
2018-01-16T20:18:32.055Z,99.90
2018-01-16T20:20:58.419Z,99.90
2018-01-16T20:23:24.785Z,99.90
2018-01-16T20:25:51.131Z,99.90
2018-01-16T20:28:17.484Z,99.90
2018-01-16T20:30:43.864Z,99.90
2018-01-16T20:33:10.215Z,99.90
2018-01-16T20:35:36.577Z,99.90
2018-01-16T20:38:02.945Z,99.90
2018-01-16T20:40:29.311Z,99.90
2018-01-16T20:42:56.452Z,99.90
2018-01-16T20:45:22.798Z,99.90
2018-01-16T20:47:49.149Z,99.90
2018-01-16T20:50:15.506Z,99.90
2018-01-16T20:52:42.635Z,99.90
2018-01-16T20:55:08.997Z,99.90
2018-01-16T20:57:35.317Z,99.90
2018-01-16T21:00:01.730Z,99.90
2018-01-16T21:02:28.077Z,99.90
2018-01-16T21:05:01.357Z,99.90
2018-01-16T21:07:27.709Z,99.90
2018-01-16T21:09:54.883Z,99.90
2018-01-16T21:12:21.256Z,99.90
2018-01-16T21:14:47.579Z,99.90
2018-01-16T21:17:13.913Z,99.90
2018-01-16T21:19:40.234Z,99.90
2018-01-16T21:22:07.340Z,99.90
2018-01-16T21:24:33.657Z,99.90
2018-01-16T21:27:00.006Z,99.90
2018-01-16T21:29:26.346Z,99.90
2018-01-16T21:31:52.708Z,99.90
2018-01-16T21:34:19.047Z,99.90
2018-01-16T21:36:45.345Z,99.90
2018-01-16T21:39:11.670Z,99.90
2018-01-16T21:41:38.096Z,99.90
2018-01-16T21:44:04.462Z,99.90
2018-01-16T21:46:30.773Z,99.90
2018-01-16T21:48:57.133Z,99.90
2018-01-16T21:51:23.456Z,99.90
2018-01-16T21:53:49.793Z,99.90
2018-01-16T21:56:16.045Z,99.90
2018-01-16T21:58:42.332Z,99.90
2018-01-16T22:01:08.670Z,99.90
2018-01-16T22:03:35.696Z,99.90
2018-01-16T22:06:01.935Z,99.90
2018-01-16T22:08:28.216Z,99.90
2018-01-16T22:10:55.245Z,99.90
2018-01-16T22:13:21.514Z,99.90
2018-01-16T22:15:48.504Z,99.90
2018-01-16T22:18:14.739Z,99.90
2018-01-16T22:20:41.028Z,99.90
2018-01-16T22:23:07.269Z,99.90
2018-01-16T22:25:33.596Z,99.90
2018-01-16T22:27:59.855Z,99.90
2018-01-16T22:30:26.106Z,99.90
2018-01-16T22:32:52.382Z,99.90
2018-01-16T22:35:18.631Z,99.90
2018-01-16T22:37:44.911Z,99.90
2018-01-16T22:40:11.201Z,99.90
2018-01-16T22:42:37.443Z,99.90
2018-01-16T22:45:03.710Z,99.90
2018-01-16T22:47:29.942Z,99.90
2018-01-16T22:49:56.217Z,99.90
2018-01-16T22:52:22.489Z,99.90
2018-01-16T22:54:49.482Z,99.90
2018-01-16T22:57:15.737Z,99.90
2018-01-16T22:59:41.993Z,99.90
2018-01-16T23:02:08.282Z,99.90
2018-01-16T23:04:35.273Z,99.90
2018-01-16T23:07:01.549Z,99.90
2018-01-16T23:09:27.824Z,99.90
2018-01-16T23:11:54.821Z,99.90
2018-01-16T23:14:21.118Z,99.90
2018-01-16T23:16:48.109Z,99.90
2018-01-16T23:19:14.392Z,99.90
2018-01-16T23:21:40.647Z,99.90
2018-01-16T23:24:06.935Z,99.90
2018-01-16T23:26:33.206Z,99.90
2018-01-16T23:28:59.456Z,99.90
2018-01-16T23:31:25.711Z,99.90
2018-01-16T23:33:51.965Z,99.90
2018-01-16T23:36:18.992Z,99.90
2018-01-16T23:38:45.266Z,99.90
2018-01-16T23:41:12.276Z,99.90
2018-01-16T23:43:38.523Z,99.90
2018-01-16T23:46:04.781Z,99.90
2018-01-16T23:48:31.056Z,99.90
2018-01-16T23:50:57.309Z,99.90
2018-01-16T23:53:23.563Z,99.90
2018-01-16T23:55:49.795Z,99.90
2018-01-16T23:58:16.031Z,99.90
